createdAt,value
2022-08-10T00:01:05.832Z,102868.44
2022-08-10T00:03:32.730Z,102870.91
2022-08-10T00:05:59.641Z,102869.63
2022-08-10T00:08:26.665Z,102884.72
2022-08-10T00:10:56.330Z,102878.69
2022-08-10T00:13:25.335Z,102876.28
2022-08-10T00:15:54.883Z,102886.53
2022-08-10T00:18:28.927Z,102874.25
2022-08-10T00:21:03.281Z,102873.88
2022-08-10T00:23:30.218Z,102882.66
2022-08-10T00:25:57.173Z,102876.59
2022-08-10T00:28:23.979Z,102875.25
2022-08-10T00:30:50.859Z,102878.97
2022-08-10T00:33:17.785Z,102878.19
2022-08-10T00:35:44.644Z,102882.97
2022-08-10T00:38:11.501Z,102878.88
2022-08-10T00:40:38.732Z,102884.03
2022-08-10T00:43:06.666Z,102878.16
2022-08-10T00:45:34.502Z,102881.72
2022-08-10T00:48:01.360Z,102876.28
2022-08-10T00:50:28.306Z,102877.47
2022-08-10T00:52:55.307Z,102877.47
2022-08-10T00:55:22.394Z,102875.03
2022-08-10T00:57:55.047Z,102877.78
2022-08-10T01:00:24.104Z,102880.34
2022-08-10T01:02:51.902Z,102874.28
2022-08-10T01:05:20.458Z,102877.13
2022-08-10T01:08:10.903Z,102876.03
2022-08-10T01:10:56.112Z,102878.16
2022-08-10T01:13:43.335Z,102869.84
2022-08-10T01:16:25.277Z,102881.00
2022-08-10T01:19:04.698Z,102885.31
2022-08-10T01:21:56.810Z,102881.34
2022-08-10T01:24:46.550Z,102883.25
2022-08-10T01:27:45.755Z,102874.69
2022-08-10T01:30:14.638Z,102876.63
2022-08-10T01:33:05.281Z,102872.19
2022-08-10T01:35:53.178Z,102874.13
2022-08-10T01:38:26.200Z,102873.13
2022-08-10T01:41:06.933Z,102874.53
2022-08-10T01:43:37.066Z,102867.91
2022-08-10T01:46:06.038Z,102873.53
2022-08-10T01:48:38.897Z,102865.16
2022-08-10T01:51:17.605Z,102865.19
2022-08-10T01:53:51.914Z,102864.50
2022-08-10T01:56:22.406Z,102869.28
2022-08-10T01:58:54.064Z,102863.91
2022-08-10T02:01:24.477Z,102859.72
2022-08-10T02:04:03.913Z,102857.44
2022-08-10T02:06:37.439Z,102871.41
2022-08-10T02:09:07.395Z,102863.09
2022-08-10T02:11:55.752Z,102865.34
2022-08-10T02:14:33.434Z,102864.63
2022-08-10T02:17:09.342Z,102867.56
2022-08-10T02:20:01.619Z,102859.72
2022-08-10T02:22:37.381Z,102859.63
2022-08-10T02:25:41.002Z,102856.38
2022-08-10T02:28:04.373Z,102858.53
2022-08-10T02:30:32.759Z,102851.56
2022-08-10T02:33:01.429Z,102858.78
2022-08-10T02:35:42.182Z,102857.97
2022-08-10T02:38:23.415Z,102860.50
2022-08-10T02:45:01.045Z,102858.50
2022-08-10T02:45:22.069Z,102866.25
2022-08-10T02:47:21.287Z,102857.69
2022-08-10T02:49:55.983Z,102855.06
2022-08-10T02:52:29.521Z,102856.81
2022-08-10T02:55:17.050Z,102846.78
2022-08-10T02:58:14.579Z,102853.16
2022-08-10T03:00:43.811Z,102853.34
2022-08-10T03:03:17.837Z,102847.69
2022-08-10T03:05:47.753Z,102851.47
2022-08-10T03:08:19.896Z,102849.00
2022-08-10T03:10:49.368Z,102846.59
2022-08-10T03:13:18.733Z,102848.94
2022-08-10T03:15:48.065Z,102848.53
2022-08-10T03:18:16.453Z,102845.28
2022-08-10T03:20:44.931Z,102849.19
2022-08-10T03:23:16.376Z,102840.31
2022-08-10T03:25:53.140Z,102848.94
2022-08-10T03:28:27.638Z,102838.72
2022-08-10T03:30:55.923Z,102844.59
2022-08-10T03:33:26.270Z,102848.53
2022-08-10T03:36:42.045Z,102840.63
2022-08-10T03:38:43.572Z,102841.53
2022-08-10T03:41:14.354Z,102833.69
2022-08-10T03:43:47.657Z,102835.31
2022-08-10T03:46:18.466Z,102831.91
2022-08-10T03:48:49.552Z,102835.31
2022-08-10T03:51:18.790Z,102839.81
2022-08-10T03:54:03.536Z,102839.13
2022-08-10T03:56:38.501Z,102837.31
2022-08-10T03:59:11.885Z,102837.00
2022-08-10T04:02:52.384Z,102835.09
2022-08-10T04:04:26.409Z,102827.69
2022-08-10T04:06:58.355Z,102832.41
2022-08-10T04:09:53.190Z,102838.97
2022-08-10T04:12:17.037Z,102841.28
2022-08-10T04:14:49.840Z,102836.06
2022-08-10T04:18:03.133Z,102833.56
2022-08-10T04:20:34.560Z,102829.06
2022-08-10T04:23:08.045Z,102830.91
2022-08-10T04:25:36.467Z,102830.69
2022-08-10T04:28:03.869Z,102830.69
2022-08-10T04:30:32.404Z,102831.69
2022-08-10T04:33:02.292Z,102827.34
2022-08-10T04:35:30.129Z,102828.09
2022-08-10T04:37:59.246Z,102825.25
2022-08-10T04:40:30.217Z,102829.53
2022-08-10T04:43:12.846Z,102827.50
2022-08-10T04:45:48.497Z,102827.41
2022-08-10T04:48:40.724Z,102830.38
2022-08-10T04:51:15.235Z,102822.56
2022-08-10T04:54:04.206Z,102825.00
2022-08-10T04:56:34.631Z,102821.91
2022-08-10T04:59:01.401Z,102821.53
2022-08-10T05:02:21.290Z,102820.69
2022-08-10T05:04:36.308Z,102826.66
2022-08-10T05:07:03.627Z,102820.75
2022-08-10T05:09:30.485Z,102830.50
2022-08-10T05:11:57.283Z,102832.50
2022-08-10T05:14:24.084Z,102826.31
2022-08-10T05:16:50.895Z,102829.41
2022-08-10T05:19:20.207Z,102835.00
2022-08-10T05:22:05.173Z,102835.53
2022-08-10T05:24:32.433Z,102836.28
2022-08-10T05:27:08.400Z,102838.84
2022-08-10T05:29:37.627Z,102840.38
2022-08-10T05:32:04.952Z,102836.94
2022-08-10T05:34:31.842Z,102841.16
2022-08-10T05:36:58.673Z,102843.63
2022-08-10T05:39:31.786Z,102841.09
2022-08-10T05:42:01.002Z,102833.34
2022-08-10T05:44:29.178Z,102835.31
2022-08-10T05:46:56.272Z,102834.75
2022-08-10T05:49:23.130Z,102837.31
2022-08-10T05:51:50.076Z,102835.09
2022-08-10T05:54:17.486Z,102837.41
2022-08-10T05:56:56.612Z,102834.81
2022-08-10T06:00:35.540Z,102836.09
2022-08-10T06:02:40.709Z,102833.47
2022-08-10T06:05:13.828Z,102832.34
2022-08-10T06:07:53.272Z,102832.84
2022-08-10T06:10:31.479Z,102835.25
2022-08-10T06:13:29.654Z,102836.47
2022-08-10T06:16:01.265Z,102836.66
2022-08-10T06:18:29.147Z,102841.41
2022-08-10T06:20:57.442Z,102841.56
2022-08-10T06:23:26.274Z,102837.53
2022-08-10T06:26:11.376Z,102839.59
2022-08-10T06:29:02.504Z,102837.88
2022-08-10T06:31:48.032Z,102845.69
2022-08-10T06:34:21.085Z,102843.38
2022-08-10T06:36:48.684Z,102843.44
2022-08-10T06:42:19.857Z,102837.13
2022-08-10T06:45:06.113Z,102829.84
2022-08-10T06:47:39.003Z,102829.47
2022-08-10T06:50:44.997Z,102832.34
2022-08-10T06:53:14.005Z,102837.13
2022-08-10T06:55:55.149Z,102842.31
2022-08-10T06:58:27.097Z,102835.03
2022-08-10T07:00:56.637Z,102838.75
2022-08-10T07:03:31.401Z,102839.22
2022-08-10T07:06:00.615Z,102841.84
2022-08-10T07:08:33.155Z,102838.63
2022-08-10T07:11:02.698Z,102842.91
2022-08-10T07:14:14.626Z,102847.38
2022-08-10T07:16:19.654Z,102841.84
2022-08-10T07:18:48.806Z,102840.72
2022-08-10T07:21:18.539Z,102841.38
2022-08-10T07:23:57.344Z,102842.88
2022-08-10T07:26:28.869Z,102850.31
2022-08-10T07:28:56.147Z,102846.22
2022-08-10T07:31:54.671Z,102848.06
2022-08-10T07:34:21.678Z,102853.41
2022-08-10T07:37:00.020Z,102854.66
2022-08-10T07:40:01.994Z,102856.91
2022-08-10T07:42:20.440Z,102859.47
2022-08-10T07:44:48.448Z,102857.28
2022-08-10T07:47:19.929Z,102857.94
2022-08-10T07:50:10.559Z,102854.94
2022-08-10T07:52:40.017Z,102849.91
2022-08-10T07:55:08.427Z,102857.06
2022-08-10T07:57:40.286Z,102852.44
2022-08-10T08:00:10.841Z,102852.84
2022-08-10T08:02:52.336Z,102852.63
2022-08-10T08:05:53.689Z,102853.28
2022-08-10T08:08:10.623Z,102851.91
2022-08-10T08:10:38.866Z,102852.91
2022-08-10T08:13:06.026Z,102853.81
2022-08-10T08:16:20.344Z,102857.13
2022-08-10T08:18:25.363Z,102858.78
2022-08-10T08:20:54.359Z,102858.53
2022-08-10T08:24:10.319Z,102856.09
2022-08-10T08:26:11.765Z,102855.03
2022-08-10T08:28:45.595Z,102853.25
2022-08-10T08:31:18.197Z,102859.69
2022-08-10T08:33:46.077Z,102860.69
2022-08-10T08:36:16.741Z,102857.66
2022-08-10T08:38:44.573Z,102851.78
2022-08-10T08:41:45.972Z,102856.09
2022-08-10T08:44:31.678Z,102851.13
2022-08-10T08:48:04.645Z,102855.22
2022-08-10T08:50:35.785Z,102845.03
2022-08-10T08:54:02.594Z,102847.28
2022-08-10T08:56:51.820Z,102844.44
2022-08-10T08:59:30.866Z,102839.41
2022-08-10T09:02:28.821Z,102835.81
2022-08-10T09:05:16.896Z,102835.44
2022-08-10T09:08:05.305Z,102832.34
2022-08-10T09:11:09.165Z,102815.31
2022-08-10T09:13:48.889Z,102821.88
2022-08-10T09:16:15.742Z,102819.19
2022-08-10T09:18:46.679Z,102826.50
2022-08-10T09:21:23.789Z,102820.22
2022-08-10T09:24:06.008Z,102820.91
2022-08-10T09:26:42.240Z,102826.94
2022-08-10T09:29:13.653Z,102819.28
2022-08-10T09:31:55.801Z,102823.06
2022-08-10T09:36:26.580Z,102811.44
2022-08-10T09:38:01.899Z,102819.47
2022-08-10T09:40:59.454Z,102807.41
2022-08-10T09:43:41.195Z,102793.91
2022-08-10T09:46:22.429Z,102798.38
2022-08-10T09:49:08.913Z,102788.59
2022-08-10T09:51:55.065Z,102787.63
2022-08-10T09:54:48.846Z,102790.81
2022-08-10T09:57:44.643Z,102780.56
2022-08-10T10:00:12.500Z,102786.31
2022-08-10T10:03:00.425Z,102783.75
2022-08-10T10:05:50.306Z,102791.06
2022-08-10T10:08:19.116Z,102784.44
2022-08-10T10:10:57.728Z,102783.66
2022-08-10T10:13:41.522Z,102775.31
2022-08-10T10:16:28.524Z,102777.50
2022-08-10T10:19:07.944Z,102777.41
2022-08-10T10:21:54.390Z,102773.00
2022-08-10T10:24:30.437Z,102770.94
2022-08-10T10:27:03.589Z,102764.00
2022-08-10T10:29:59.565Z,102763.41
2022-08-10T10:32:47.832Z,102758.50
2022-08-10T10:35:38.063Z,102758.59
2022-08-10T10:38:09.020Z,102764.09
2022-08-10T10:41:07.138Z,102755.94
2022-08-10T10:43:47.579Z,102750.47
2022-08-10T10:46:37.540Z,102752.00
2022-08-10T10:49:31.224Z,102743.13
2022-08-10T10:52:14.502Z,102746.28
2022-08-10T10:55:00.168Z,102747.28
2022-08-10T10:57:58.622Z,102751.50
2022-08-10T11:00:37.322Z,102746.44
2022-08-10T11:03:21.579Z,102740.91
2022-08-10T11:06:14.528Z,102732.41
2022-08-10T11:08:47.842Z,102737.34
2022-08-10T11:12:00.871Z,102744.56
2022-08-10T11:14:39.225Z,102730.88
2022-08-10T11:17:33.713Z,102732.91
2022-08-10T11:20:27.993Z,102725.63
2022-08-10T11:23:20.423Z,102721.16
2022-08-10T11:26:00.852Z,102722.19
2022-08-10T11:28:30.473Z,102720.25
2022-08-10T11:31:10.928Z,102713.09
2022-08-10T11:34:31.993Z,102721.59
2022-08-10T11:36:55.047Z,102732.28
2022-08-10T11:39:30.916Z,102720.91
2022-08-10T11:42:08.929Z,102729.63
2022-08-10T11:44:55.736Z,102723.00
2022-08-10T11:47:27.577Z,102719.34
2022-08-10T11:50:08.545Z,102719.47
2022-08-10T11:52:51.690Z,102707.91
2022-08-10T11:55:22.154Z,102713.31
2022-08-10T11:57:55.139Z,102719.84
2022-08-10T12:00:24.581Z,102712.25
2022-08-10T12:02:55.616Z,102707.59
2022-08-10T12:05:51.569Z,102703.22
2022-08-10T12:10:04.377Z,102711.41
2022-08-10T12:11:22.418Z,102701.41
2022-08-10T12:14:23.999Z,102705.88
2022-08-10T12:16:59.392Z,102695.31
2022-08-10T12:20:02.012Z,102688.50
2022-08-10T12:22:36.306Z,102690.09
2022-08-10T12:25:07.563Z,102693.91
2022-08-10T12:27:54.909Z,102696.13
2022-08-10T12:30:32.389Z,102687.59
2022-08-10T12:33:09.389Z,102684.94
2022-08-10T12:35:56.135Z,102687.13
2022-08-10T12:38:36.948Z,102684.09
2022-08-10T12:41:16.264Z,102672.50
2022-08-10T12:44:07.488Z,102668.16
2022-08-10T12:46:41.737Z,102666.25
2022-08-10T12:49:23.181Z,102673.78
2022-08-10T12:52:27.508Z,102677.56
2022-08-10T12:54:56.963Z,102665.03
2022-08-10T12:57:26.023Z,102655.22
2022-08-10T12:59:58.105Z,102658.63
2022-08-10T13:02:32.941Z,102659.47
2022-08-10T13:05:04.607Z,102650.13
2022-08-10T13:08:03.782Z,102645.44
2022-08-10T13:10:27.743Z,102646.84
2022-08-10T13:12:58.068Z,102641.88
2022-08-10T13:15:48.747Z,102644.53
2022-08-10T13:18:26.291Z,102632.47
2022-08-10T13:20:55.997Z,102636.66
2022-08-10T13:23:27.066Z,102640.78
2022-08-10T13:25:58.142Z,102639.38
2022-08-10T13:28:40.091Z,102634.22
2022-08-10T13:31:11.346Z,102626.19
2022-08-10T13:34:40.106Z,102625.31
2022-08-10T13:36:41.643Z,102625.16
2022-08-10T13:39:09.448Z,102626.06
2022-08-10T13:41:42.554Z,102624.94
2022-08-10T13:44:12.857Z,102625.31
2022-08-10T13:46:42.274Z,102627.22
2022-08-10T13:49:11.257Z,102628.75
2022-08-10T13:51:57.084Z,102622.47
2022-08-10T13:54:29.545Z,102623.34
2022-08-10T13:56:57.923Z,102624.25
2022-08-10T14:00:33.100Z,102622.78
2022-08-10T14:02:22.837Z,102613.78
2022-08-10T14:04:50.675Z,102620.72
2022-08-10T14:07:18.391Z,102619.53
2022-08-10T14:09:47.674Z,102620.13
2022-08-10T14:12:16.634Z,102621.41
2022-08-10T14:14:45.299Z,102624.22
2022-08-10T14:17:22.245Z,102626.19
2022-08-10T14:19:58.826Z,102619.09
2022-08-10T14:22:33.682Z,102602.50
2022-08-10T14:25:09.558Z,102599.88
2022-08-10T14:28:02.448Z,102610.75
2022-08-10T14:30:30.972Z,102603.19
2022-08-10T14:33:04.197Z,102606.31
2022-08-10T14:36:20.490Z,102596.75
2022-08-10T14:38:26.789Z,102603.41
2022-08-10T14:40:57.011Z,102602.66
2022-08-10T14:43:34.608Z,102593.72
2022-08-10T14:46:08.207Z,102603.59
2022-08-10T14:48:43.420Z,102598.78
2022-08-10T14:51:15.792Z,102594.13
2022-08-10T14:53:44.500Z,102592.81
2022-08-10T14:56:14.509Z,102586.75
2022-08-10T14:59:05.258Z,102591.53
2022-08-10T15:02:00.691Z,102584.53
2022-08-10T15:04:28.373Z,102591.06
2022-08-10T15:07:01.261Z,102590.41
2022-08-10T15:09:36.288Z,102593.56
2022-08-10T15:12:27.287Z,102585.63
2022-08-10T15:15:00.737Z,102591.25
2022-08-10T15:17:39.485Z,102592.13
2022-08-10T15:20:20.431Z,102586.44
2022-08-10T15:23:30.737Z,102581.72
2022-08-10T15:26:10.691Z,102580.38
2022-08-10T15:29:22.385Z,102574.38
2022-08-10T15:32:00.122Z,102572.28
2022-08-10T15:34:47.655Z,102577.53
2022-08-10T15:37:36.459Z,102576.34
2022-08-10T15:40:24.243Z,102571.75
2022-08-10T15:43:20.087Z,102572.19
2022-08-10T15:46:03.215Z,102574.50
2022-08-10T15:48:43.707Z,102575.50
2022-08-10T15:51:33.707Z,102573.16
2022-08-10T15:54:18.631Z,102575.25
2022-08-10T15:57:18.458Z,102577.69
2022-08-10T15:59:55.168Z,102572.06
2022-08-10T16:02:26.097Z,102575.47
2022-08-10T16:05:16.328Z,102575.53
2022-08-10T16:07:50.328Z,102558.44
2022-08-10T16:10:28.247Z,102563.59
2022-08-10T16:13:50.366Z,102559.31
2022-08-10T16:15:58.616Z,102559.66
2022-08-10T16:18:28.666Z,102555.66
2022-08-10T16:21:00.574Z,102555.78
2022-08-10T16:23:35.090Z,102559.06
2022-08-10T16:26:13.322Z,102559.41
2022-08-10T16:28:56.171Z,102550.56
2022-08-10T16:31:25.635Z,102542.66
2022-08-10T16:33:56.538Z,102543.19
2022-08-10T16:36:33.468Z,102548.97
2022-08-10T16:39:01.161Z,102546.72
2022-08-10T16:42:04.219Z,102541.25
2022-08-10T16:44:23.438Z,102540.38
2022-08-10T16:46:51.387Z,102538.16
2022-08-10T16:49:19.701Z,102533.69
2022-08-10T16:51:49.264Z,102528.78
2022-08-10T16:54:22.374Z,102534.34
2022-08-10T16:56:53.315Z,102539.66
2022-08-10T16:59:24.342Z,102538.69
2022-08-10T17:01:53.935Z,102531.72
2022-08-10T17:04:23.616Z,102525.44
2022-08-10T17:06:56.821Z,102527.09
2022-08-10T17:09:33.127Z,102526.88
2022-08-10T17:12:10.326Z,102527.72
2022-08-10T17:14:42.649Z,102523.75
2022-08-10T17:17:18.613Z,102520.97
2022-08-10T17:19:45.936Z,102516.38
2022-08-10T17:22:25.257Z,102520.06
2022-08-10T17:25:02.042Z,102516.38
2022-08-10T17:28:33.281Z,102512.28
2022-08-10T17:30:35.267Z,102511.56
2022-08-10T17:33:13.886Z,102502.69
2022-08-10T17:35:44.041Z,102506.44
2022-08-10T17:38:21.569Z,102513.69
2022-08-10T17:40:52.820Z,102515.88
2022-08-10T17:43:58.476Z,102509.44
2022-08-10T17:46:14.648Z,102516.66
2022-08-10T17:48:42.898Z,102513.31
2022-08-10T17:51:15.571Z,102510.22
2022-08-10T17:53:50.945Z,102502.44
2022-08-10T17:56:21.070Z,102506.66
2022-08-10T17:59:16.828Z,102507.34
2022-08-10T18:02:01.593Z,102512.91
2022-08-10T18:04:41.482Z,102508.66
2022-08-10T18:07:10.957Z,102506.50
2022-08-10T18:09:54.918Z,102511.25
2022-08-10T18:12:36.031Z,102509.00
2022-08-10T18:15:12.312Z,102513.78
2022-08-10T18:17:46.050Z,102504.59
2022-08-10T18:20:16.061Z,102513.13
2022-08-10T18:22:50.461Z,102502.03
2022-08-10T18:25:26.960Z,102511.81
2022-08-10T18:28:03.766Z,102505.22
2022-08-10T18:30:36.297Z,102509.59
2022-08-10T18:33:10.644Z,102505.97
2022-08-10T18:35:39.554Z,102512.00
2022-08-10T18:38:07.730Z,102515.09
2022-08-10T18:40:38.131Z,102517.72
2022-08-10T18:44:08.018Z,102520.66
2022-08-10T18:45:58.733Z,102523.91
2022-08-10T18:48:37.231Z,102528.53
2022-08-10T18:51:06.632Z,102521.00
2022-08-10T18:53:38.443Z,102515.72
2022-08-10T18:56:17.033Z,102517.34
2022-08-10T18:59:03.189Z,102526.78
2022-08-10T19:01:47.265Z,102522.47
2022-08-10T19:04:48.678Z,102527.50
2022-08-10T19:07:45.671Z,102526.84
2022-08-10T19:10:12.436Z,102520.50
2022-08-10T19:12:55.052Z,102520.78
2022-08-10T19:16:00.187Z,102528.59
2022-08-10T19:18:31.528Z,102530.19
2022-08-10T19:21:21.305Z,102527.19
2022-08-10T19:24:23.425Z,102529.19
2022-08-10T19:27:19.623Z,102535.44
2022-08-10T19:30:09.222Z,102538.88
2022-08-10T19:33:01.368Z,102533.75
2022-08-10T19:36:04.579Z,102532.56
2022-08-10T19:38:34.468Z,102533.06
2022-08-10T19:41:31.991Z,102532.94
2022-08-10T19:44:26.824Z,102536.78
2022-08-10T19:47:02.562Z,102537.63
2022-08-10T19:49:49.945Z,102540.97
2022-08-10T19:52:37.986Z,102541.41
2022-08-10T19:55:33.329Z,102539.72
2022-08-10T19:58:10.958Z,102531.81
2022-08-10T20:00:46.832Z,102540.16
2022-08-10T20:03:25.692Z,102542.63
2022-08-10T20:06:18.148Z,102542.63
2022-08-10T20:08:54.450Z,102537.66
2022-08-10T20:12:04.798Z,102541.84
2022-08-10T20:15:06.287Z,102531.78
2022-08-10T20:17:51.479Z,102541.75
2022-08-10T20:20:36.049Z,102537.47
2022-08-10T20:23:12.405Z,102531.53
2022-08-10T20:25:42.411Z,102530.88
2022-08-10T20:28:18.633Z,102530.66
2022-08-10T20:30:52.029Z,102533.75
2022-08-10T20:33:34.439Z,102539.78
2022-08-10T20:36:07.471Z,102532.47
2022-08-10T20:38:40.408Z,102532.56
2022-08-10T20:41:25.417Z,102529.28
2022-08-10T20:44:09.913Z,102529.69
2022-08-10T20:46:55.926Z,102530.53
2022-08-10T20:49:40.663Z,102530.81
2022-08-10T20:52:08.102Z,102530.56
2022-08-10T20:54:42.158Z,102536.53
2022-08-10T20:57:53.467Z,102530.56
2022-08-10T21:00:09.940Z,102537.75
2022-08-10T21:03:06.513Z,102534.75
2022-08-10T21:06:31.688Z,102533.22
2022-08-10T21:09:38.016Z,102538.06
2022-08-10T21:12:18.289Z,102535.59
2022-08-10T21:15:11.395Z,102531.16
2022-08-10T21:17:56.072Z,102534.63
2022-08-10T21:20:33.693Z,102531.91
2022-08-10T21:23:05.832Z,102526.22
2022-08-10T21:25:56.732Z,102519.00
2022-08-10T21:29:08.915Z,102529.81
2022-08-10T21:32:06.829Z,102515.13
2022-08-10T21:35:00.948Z,102521.03
2022-08-10T21:37:51.877Z,102518.94
2022-08-10T21:41:17.181Z,102519.50
2022-08-10T21:44:32.014Z,102521.41
2022-08-10T21:48:17.381Z,102513.56
2022-08-10T21:51:16.368Z,102517.19
2022-08-10T21:54:25.891Z,102517.03
2022-08-10T21:57:26.086Z,102521.09
2022-08-10T22:00:28.563Z,102513.69
2022-08-10T22:03:17.791Z,102518.44
2022-08-10T22:06:09.192Z,102516.28
2022-08-10T22:09:09.552Z,102516.53
2022-08-10T22:12:00.901Z,102509.16
2022-08-10T22:14:52.311Z,102512.09
2022-08-10T22:18:00.127Z,102511.03
2022-08-10T22:20:53.225Z,102508.50
2022-08-10T22:23:41.603Z,102516.16
2022-08-10T22:30:01.737Z,102509.50
2022-08-10T22:31:26.947Z,102509.66
2022-08-10T22:33:09.493Z,102514.28
2022-08-10T22:36:24.411Z,102511.44
2022-08-10T22:40:11.429Z,102509.78
2022-08-10T22:42:59.003Z,102511.09
2022-08-10T22:45:53.567Z,102517.28
2022-08-10T22:48:39.465Z,102509.44
2022-08-10T22:51:15.035Z,102518.03
2022-08-10T22:54:06.711Z,102516.72
2022-08-10T22:56:59.492Z,102505.69
2022-08-10T22:59:31.912Z,102510.44
2022-08-10T23:02:07.907Z,102501.91
2022-08-10T23:04:44.244Z,102504.53
2022-08-10T23:07:17.908Z,102503.47
2022-08-10T23:10:05.612Z,102497.09
2022-08-10T23:12:47.646Z,102504.03
2022-08-10T23:15:56.850Z,102501.06
2022-08-10T23:18:55.172Z,102504.84
2022-08-10T23:21:27.405Z,102501.06
2022-08-10T23:24:17.285Z,102497.97
2022-08-10T23:26:45.412Z,102497.16
2022-08-10T23:29:16.880Z,102493.97
2022-08-10T23:31:50.255Z,102489.97
2022-08-10T23:34:36.050Z,102491.44
2022-08-10T23:37:06.164Z,102488.81
2022-08-10T23:39:37.512Z,102489.56
2022-08-10T23:42:08.526Z,102489.06
2022-08-10T23:44:41.595Z,102490.94
2022-08-10T23:47:10.371Z,102493.41
2022-08-10T23:49:39.131Z,102495.50
2022-08-10T23:52:15.679Z,102494.22
2022-08-10T23:55:05.135Z,102498.78
2022-08-10T23:57:35.154Z,102485.88
